createdAt,value
2018-12-13T00:04:59.985Z,7.20
2018-12-13T00:07:40.484Z,5.80
2018-12-13T00:10:13.365Z,6.80
2018-12-13T00:12:45.572Z,5.97
2018-12-13T00:15:22.250Z,5.83
2018-12-13T00:18:01.907Z,7.58
2018-12-13T00:20:34.283Z,6.25
2018-12-13T00:23:06.698Z,6.58
2018-12-13T00:25:38.839Z,6.08
2018-12-13T00:28:11.858Z,5.47
2018-12-13T00:30:43.872Z,6.45
2018-12-13T00:33:16.235Z,6.80
2018-12-13T00:35:52.908Z,6.30
2018-12-13T00:53:27.322Z,5.90
2018-12-13T00:55:59.738Z,6.08
2018-12-13T00:58:32.562Z,6.45
2018-12-13T01:07:19.775Z,6.53
2018-12-13T01:09:51.638Z,6.00
2018-12-13T01:15:23.258Z,7.10
2018-12-13T01:23:58.866Z,6.90
2018-12-13T01:26:45.011Z,7.05
2018-12-13T01:29:33.293Z,7.85
2018-12-13T01:35:17.096Z,7.60
2018-12-13T01:37:57.109Z,7.08
2018-12-13T01:40:38.439Z,8.00
2018-12-13T01:56:03.011Z,7.45
2018-12-13T02:01:43.683Z,7.87
2018-12-13T02:07:39.776Z,6.53
2018-12-13T02:13:29.385Z,7.62
2018-12-13T02:16:18.480Z,7.50
2018-12-13T02:22:05.156Z,7.20
2018-12-13T02:24:37.656Z,7.87
2018-12-13T02:30:10.282Z,7.10
2018-12-13T02:39:13.074Z,7.30
2018-12-13T03:45:38.833Z,8.38
2018-12-13T03:48:15.100Z,8.10
2018-12-13T03:50:57.515Z,9.08
2018-12-13T03:53:31.302Z,8.20
2018-12-13T03:59:23.248Z,8.30
2018-12-13T04:02:07.568Z,8.90
2018-12-13T04:04:41.336Z,8.35
2018-12-13T04:07:16.507Z,8.48
2018-12-13T04:43:30.364Z,10.55
2018-12-13T04:46:19.106Z,8.60
2018-12-13T04:52:00.472Z,11.45
2018-12-13T05:00:33.439Z,10.75
2018-12-13T05:03:08.364Z,9.48
2018-12-13T05:05:40.492Z,10.45
2018-12-13T05:08:20.293Z,9.70
2018-12-13T05:10:54.843Z,9.73
2018-12-13T05:16:24.160Z,10.58
2018-12-13T05:19:05.243Z,10.23
2018-12-13T05:21:38.464Z,9.78
2018-12-13T05:24:21.043Z,9.23
2018-12-13T05:26:58.348Z,10.13
2018-12-13T05:45:15.140Z,9.95
2018-12-13T05:47:49.248Z,9.73
2018-12-13T05:50:20.026Z,9.55
2018-12-13T05:55:48.854Z,9.65
2018-12-13T06:01:13.205Z,9.78
2018-12-13T06:03:43.826Z,9.98
2018-12-13T06:06:16.191Z,11.08
2018-12-13T06:08:44.890Z,11.45
2018-12-13T06:11:17.108Z,10.75
2018-12-13T06:13:45.953Z,10.08
2018-12-13T06:16:14.154Z,9.03
2018-12-13T06:18:42.584Z,10.25
2018-12-13T06:21:11.911Z,8.95
2018-12-13T06:23:40.726Z,9.20
2018-12-13T06:26:09.060Z,9.05
2018-12-13T06:28:37.601Z,10.30
2018-12-13T06:31:12.363Z,10.10
2018-12-13T06:33:44.732Z,10.58
2018-12-13T06:36:17.004Z,11.10
2018-12-13T06:38:49.138Z,9.50
2018-12-13T06:41:23.390Z,9.58
2018-12-13T06:43:55.193Z,9.80
2018-12-13T06:46:29.522Z,10.60
2018-12-13T06:49:03.846Z,9.80
2018-12-13T06:54:31.980Z,9.33
2018-12-13T06:57:05.367Z,10.72
2018-12-13T06:59:39.933Z,9.75
2018-12-13T07:02:12.223Z,9.85
2018-12-13T07:04:47.641Z,9.65
2018-12-13T07:07:22.246Z,10.78
2018-12-13T07:09:54.443Z,9.75
2018-12-13T07:12:26.853Z,10.28
2018-12-13T07:14:59.346Z,10.55
2018-12-13T07:23:39.135Z,9.40
2018-12-13T07:26:16.049Z,10.58
2018-12-13T07:29:10.019Z,10.25
2018-12-13T07:31:46.206Z,11.10
2018-12-13T07:37:53.400Z,10.38
2018-12-13T07:40:26.684Z,11.68
2018-12-13T07:43:01.843Z,10.08
2018-12-13T07:45:40.796Z,10.68
2018-12-13T07:48:16.426Z,9.48
2018-12-13T07:50:50.564Z,11.03
2018-12-13T07:53:29.200Z,10.65
2018-12-13T07:56:18.137Z,9.55
2018-12-13T07:59:04.847Z,9.95
2018-12-13T08:01:35.078Z,9.25
2018-12-13T08:04:06.894Z,10.50
2018-12-13T08:06:45.460Z,10.93
2018-12-13T08:09:18.501Z,10.13
2018-12-13T08:11:52.452Z,10.00
2018-12-13T08:14:25.662Z,10.10
2018-12-13T08:17:08.660Z,10.75
2018-12-13T08:19:41.030Z,11.78
2018-12-13T08:22:16.192Z,11.85
2018-12-13T08:24:48.339Z,10.35
2018-12-13T08:27:20.661Z,9.63
2018-12-13T08:29:53.374Z,10.88
2018-12-13T08:32:26.113Z,11.30
2018-12-13T08:35:02.058Z,11.93
2018-12-13T08:37:34.402Z,9.63
2018-12-13T08:40:06.505Z,10.65
2018-12-13T08:42:38.591Z,9.40
2018-12-13T08:45:10.939Z,9.90
2018-12-13T08:47:42.984Z,10.65
2018-12-13T08:50:15.445Z,10.18
2018-12-13T08:53:07.995Z,9.10
2018-12-13T08:55:47.046Z,10.05
2018-12-13T08:58:20.026Z,9.48
2018-12-13T09:03:50.687Z,10.30
2018-12-13T09:06:22.901Z,11.93
2018-12-13T09:08:54.916Z,10.45
2018-12-13T09:14:25.068Z,10.30
2018-12-13T09:16:57.483Z,11.40
2018-12-13T09:19:29.366Z,11.00
2018-12-13T09:22:01.829Z,10.40
2018-12-13T09:27:38.867Z,11.30
2018-12-13T09:30:13.530Z,11.05
2018-12-13T09:32:45.292Z,11.50
2018-12-13T09:35:23.522Z,11.05
2018-12-13T09:37:58.338Z,10.08
2018-12-13T09:40:30.654Z,10.48
2018-12-13T09:43:06.335Z,11.48
2018-12-13T09:45:42.042Z,10.72
2018-12-13T09:48:16.564Z,11.73
2018-12-13T09:50:49.304Z,9.13
2018-12-13T09:53:21.519Z,10.98
2018-12-13T09:55:54.411Z,11.68
2018-12-13T09:58:26.570Z,10.45
2018-12-13T10:01:02.280Z,11.38
2018-12-13T10:03:33.218Z,10.78
2018-12-13T10:06:07.571Z,9.50
2018-12-13T10:08:46.148Z,12.55
2018-12-13T10:11:13.914Z,11.95
2018-12-13T10:13:45.765Z,11.45
2018-12-13T10:16:18.233Z,12.35
2018-12-13T10:18:50.250Z,12.30
2018-12-13T10:21:22.334Z,13.10
2018-12-13T10:24:02.614Z,13.62
2018-12-13T10:26:34.676Z,12.60
2018-12-13T10:29:07.863Z,13.68
2018-12-13T10:31:42.815Z,11.25
2018-12-13T10:34:14.514Z,12.15
2018-12-13T10:36:47.279Z,11.55
2018-12-13T10:39:19.405Z,12.35
2018-12-13T10:41:53.589Z,11.97
2018-12-13T10:44:33.102Z,13.55
2018-12-13T10:47:05.631Z,13.08
2018-12-13T10:49:37.672Z,13.32
2018-12-13T10:52:10.402Z,10.80
2018-12-13T10:54:45.557Z,12.55
2018-12-13T10:57:17.138Z,11.20
2018-12-13T10:59:58.186Z,13.78
2018-12-13T11:02:39.951Z,12.20
2018-12-13T11:05:11.484Z,13.18
2018-12-13T11:07:48.982Z,13.05
2018-12-13T11:10:25.409Z,11.60
2018-12-13T11:12:55.124Z,12.10
2018-12-13T11:15:26.936Z,13.05
2018-12-13T11:18:01.292Z,11.90
2018-12-13T11:20:39.037Z,12.88
2018-12-13T11:23:14.296Z,12.03
2018-12-13T11:25:51.242Z,12.35
2018-12-13T11:31:25.023Z,13.25
2018-12-13T11:36:54.015Z,11.43
2018-12-13T11:39:26.223Z,13.05
2018-12-13T11:41:58.944Z,12.37
2018-12-13T11:44:35.205Z,13.08
2018-12-13T11:47:09.248Z,13.30
2018-12-13T11:49:44.088Z,15.10
2018-12-13T11:52:16.478Z,13.30
2018-12-13T11:57:49.783Z,14.05
2018-12-13T12:00:24.689Z,15.10
2018-12-13T12:08:58.532Z,13.10
2018-12-13T12:11:34.921Z,13.35
2018-12-13T12:17:03.303Z,14.05
2018-12-13T12:19:36.553Z,13.22
2018-12-13T12:22:08.791Z,13.85
2018-12-13T12:30:33.098Z,13.98
2018-12-13T12:33:07.182Z,13.18
2018-12-13T12:35:39.238Z,13.90
2018-12-13T12:38:13.851Z,15.75
2018-12-13T12:40:50.931Z,13.55
2018-12-13T12:51:57.805Z,14.10
2018-12-13T12:54:33.514Z,14.40
2018-12-13T12:57:10.171Z,13.60
2018-12-13T12:59:44.310Z,14.10
2018-12-13T13:05:26.358Z,13.88
2018-12-13T13:08:00.887Z,14.00
2018-12-13T13:10:39.805Z,14.63
2018-12-13T13:13:09.081Z,14.13
2018-12-13T13:15:40.729Z,15.72
2018-12-13T13:18:23.243Z,13.75
2018-12-13T13:39:00.217Z,14.13
2018-12-13T13:41:34.393Z,14.40
2018-12-13T13:47:06.148Z,15.08
2018-12-13T13:55:14.721Z,14.50
2018-12-13T14:03:36.465Z,13.10
2018-12-13T14:06:23.631Z,13.58
2018-12-13T14:11:58.464Z,16.50
2018-12-13T14:14:28.341Z,13.83
2018-12-13T14:17:00.173Z,14.05
2018-12-13T14:22:42.884Z,13.90
2018-12-13T14:28:11.482Z,15.90
2018-12-13T14:33:47.355Z,14.15
2018-12-13T14:48:16.117Z,13.80
2018-12-13T14:50:55.403Z,12.70
2018-12-13T15:01:29.485Z,14.90
2018-12-13T15:04:01.503Z,14.98
2018-12-13T15:06:39.521Z,14.07
2018-12-13T15:09:28.804Z,14.20
2018-12-13T15:12:15.501Z,15.98
2018-12-13T15:27:02.656Z,13.65
2018-12-13T15:32:44.601Z,13.50
2018-12-13T15:35:25.037Z,13.95
2018-12-13T15:38:03.399Z,13.90
2018-12-13T15:40:34.966Z,12.88
2018-12-13T15:46:13.357Z,12.90
2018-12-13T15:48:55.194Z,13.80
2018-12-13T15:51:24.538Z,12.98
2018-12-13T15:53:53.645Z,13.80
2018-12-13T15:56:23.035Z,14.05
2018-12-13T15:58:51.296Z,13.25
2018-12-13T16:01:19.940Z,13.25
2018-12-13T16:03:51.182Z,13.95
2018-12-13T16:06:33.851Z,11.10
2018-12-13T16:09:06.507Z,12.85
2018-12-13T16:11:34.830Z,13.55
2018-12-13T16:14:03.728Z,13.00
2018-12-13T16:16:33.200Z,12.58
2018-12-13T16:22:03.931Z,12.60
2018-12-13T16:24:35.505Z,13.03
2018-12-13T16:30:22.233Z,12.23
2018-12-13T16:38:56.740Z,11.45
2018-12-13T16:41:29.348Z,13.10
2018-12-13T16:44:03.482Z,11.55
2018-12-13T16:46:43.846Z,12.63
2018-12-13T16:58:22.455Z,12.75
2018-12-13T17:03:58.706Z,12.58
2018-12-13T17:06:30.736Z,13.28
2018-12-13T17:09:05.543Z,13.20
2018-12-13T17:11:34.548Z,13.18
2018-12-13T17:14:06.033Z,13.13
2018-12-13T17:16:37.377Z,13.20
2018-12-13T17:19:10.090Z,13.90
2018-12-13T17:24:37.890Z,12.33
2018-12-13T17:27:13.683Z,12.65
2018-12-13T17:29:46.927Z,13.20
2018-12-13T17:32:18.497Z,13.13
2018-12-13T17:34:50.624Z,12.80
2018-12-13T17:37:23.283Z,12.95
2018-12-13T17:39:56.188Z,12.40
2018-12-13T17:42:28.475Z,12.98
2018-12-13T17:45:01.769Z,12.78
2018-12-13T17:47:45.040Z,11.48
2018-12-13T17:50:19.988Z,12.93
2018-12-13T17:52:52.446Z,14.07
2018-12-13T17:55:22.318Z,14.07
2018-12-13T17:58:03.881Z,12.73
2018-12-13T18:00:32.977Z,12.73
2018-12-13T18:08:56.427Z,12.43
2018-12-13T18:14:30.308Z,12.23
2018-12-13T18:17:07.070Z,11.90
2018-12-13T18:22:45.909Z,12.35
2018-12-13T18:28:29.488Z,14.75
2018-12-13T18:31:05.362Z,14.28
2018-12-13T18:36:39.710Z,12.73
2018-12-13T18:51:05.512Z,13.00
2018-12-13T18:53:42.238Z,13.70
2018-12-13T18:59:04.442Z,12.37
2018-12-13T19:01:34.714Z,13.98
2018-12-13T19:04:07.011Z,13.35
2018-12-13T19:06:39.164Z,14.33
2018-12-13T19:09:13.597Z,13.62
2018-12-13T19:14:46.477Z,12.85
2018-12-13T19:17:18.755Z,12.50
2018-12-13T19:19:50.990Z,13.48
2018-12-13T19:25:27.804Z,13.28
2018-12-13T19:28:04.077Z,12.45
2018-12-13T19:30:37.349Z,13.25
2018-12-13T19:33:09.244Z,12.50
2018-12-13T19:35:41.370Z,13.03
2018-12-13T19:38:14.252Z,12.65
2018-12-13T19:40:48.449Z,12.78
2018-12-13T19:43:20.462Z,13.72
2018-12-13T19:45:52.090Z,12.73
2018-12-13T19:48:29.471Z,12.73
2018-12-13T19:51:04.273Z,12.78
2018-12-13T19:53:44.293Z,11.68
2018-12-13T19:56:20.275Z,12.70
2018-12-13T19:58:58.802Z,12.20
2018-12-13T20:01:34.199Z,12.03
2018-12-13T20:13:09.640Z,13.50
2018-12-13T20:15:45.597Z,14.68
2018-12-13T20:18:33.974Z,12.53
2018-12-13T20:27:21.332Z,12.30
2018-12-13T20:33:04.674Z,12.50
2018-12-13T20:35:37.552Z,12.37
2018-12-13T20:41:09.494Z,13.25
2018-12-13T20:49:42.169Z,13.22
2018-12-13T20:52:14.804Z,11.80
2018-12-13T20:57:45.358Z,13.15
2018-12-13T21:00:17.284Z,11.93
2018-12-13T21:02:51.752Z,13.80
2018-12-13T21:08:19.533Z,12.03
2018-12-13T21:10:53.462Z,12.45
2018-12-13T21:13:22.975Z,12.53
2018-12-13T21:15:57.197Z,12.58
2018-12-13T21:27:21.324Z,12.45
2018-12-13T21:29:53.537Z,13.03
2018-12-13T21:32:25.990Z,13.40
2018-12-13T21:34:58.557Z,12.90
2018-12-13T21:37:31.002Z,12.20
2018-12-13T21:40:03.199Z,13.32
2018-12-13T21:42:35.116Z,12.63
2018-12-13T21:45:07.982Z,12.47
2018-12-13T21:47:40.073Z,12.60
2018-12-13T21:50:14.320Z,12.28
2018-12-13T21:52:48.190Z,11.53
2018-12-13T21:55:20.133Z,14.33
2018-12-13T21:57:52.159Z,11.75
2018-12-13T22:00:24.543Z,13.53
2018-12-13T22:02:56.413Z,11.83
2018-12-13T22:05:29.883Z,12.50
2018-12-13T22:11:02.757Z,13.72
2018-12-13T22:13:36.858Z,13.25
2018-12-13T22:16:08.549Z,13.65
2018-12-13T22:26:10.812Z,14.15
2018-12-13T22:28:42.845Z,13.45
2018-12-13T22:31:14.973Z,14.90
2018-12-13T22:36:42.926Z,13.90
2018-12-13T22:45:13.432Z,13.78
2018-12-13T22:47:45.379Z,13.93
2018-12-13T22:50:17.361Z,12.68
2018-12-13T22:52:49.708Z,14.20
2018-12-13T22:58:16.836Z,13.15
2018-12-13T23:00:48.935Z,14.63
2018-12-13T23:06:16.873Z,14.20
2018-12-13T23:08:48.691Z,13.45
2018-12-13T23:17:15.988Z,15.15
2018-12-13T23:22:48.091Z,13.78
2018-12-13T23:25:22.385Z,14.30
2018-12-13T23:30:23.007Z,15.85
2018-12-13T23:32:55.229Z,13.95
2018-12-13T23:35:27.343Z,14.10
2018-12-13T23:37:59.301Z,14.65
2018-12-13T23:46:30.217Z,15.32
2018-12-13T23:49:03.052Z,15.32
2018-12-13T23:51:35.565Z,15.40
2018-12-13T23:54:07.332Z,14.60
2018-12-13T23:59:39.397Z,15.00
